Time;durP1;ratioP1;P1;durP2;ratioP2;P2;SDS_P1;SDS_P2;PMS_P1;PMS_P2;Temp;Humidity;BMP_temperature;BMP_pressure;BME280_temperature;BME280_humidity;BME280_pressure;Samples;Min_cycle;Max_cycle;Signal;HPM_P1;HPM_P2
2022/09/09 00:01:51;;;;;;;2.70;1.13;;;17.20;99.90;;;17.62;87.04;100146.44;5032792;28;21066;-65
2022/09/09 00:04:33;;;;;;;1.00;0.97;;;17.20;99.90;;;17.64;86.84;100147.09;5034045;28;20597;-65
2022/09/09 00:07:28;;;;;;;1.23;1.03;;;17.20;99.90;;;17.68;86.63;100145.75;5028471;28;20637;-65
2022/09/09 00:10:19;;;;;;;1.30;1.17;;;17.30;99.90;;;17.59;87.30;100149.41;5034434;28;20644;-65
2022/09/09 00:13:27;;;;;;;1.13;1.03;;;17.20;99.90;;;17.51;88.29;100146.75;5028841;28;20700;-65
2022/09/09 00:16:12;;;;;;;1.13;1.03;;;17.20;99.90;;;17.63;87.39;100145.44;5013501;28;20665;-65
2022/09/09 00:18:51;;;;;;;1.77;1.30;;;17.20;99.90;;;17.75;86.68;100138.81;5031113;28;20675;-65
2022/09/09 00:21:19;;;;;;;2.20;1.00;;;17.30;99.90;;;17.89;85.46;100132.84;5028774;28;20648;-65
2022/09/09 00:23:54;;;;;;;2.40;1.07;;;17.40;99.90;;;17.79;85.59;100135.69;5033135;28;20641;-65
2022/09/09 00:26:51;;;;;;;1.10;1.10;;;17.40;99.90;;;17.63;86.35;100129.63;5019517;28;21047;-65
2022/09/09 00:29:59;;;;;;;1.60;0.97;;;17.30;99.90;;;17.62;86.78;100130.59;5034591;28;20629;-65
2022/09/09 00:32:30;;;;;;;1.43;1.33;;;17.20;99.90;;;17.75;85.94;100133.56;5034281;28;21269;-65
2022/09/09 00:35:10;;;;;;;7.60;1.40;;;17.30;99.90;;;17.95;84.85;100131.38;5026132;28;20683;-65
2022/09/09 00:37:39;;;;;;;2.03;1.17;;;17.40;99.90;;;17.92;84.53;100118.50;5016035;28;20975;-65
2022/09/09 00:40:29;;;;;;;3.80;1.30;;;17.40;99.90;;;17.87;84.78;100121.63;5033075;28;20675;-65
2022/09/09 00:43:30;;;;;;;2.40;1.27;;;17.50;99.90;;;18.06;84.06;100126.53;5031237;28;20637;-65
2022/09/09 00:46:23;;;;;;;1.00;0.90;;;17.50;99.90;;;18.14;83.04;100129.16;5029547;28;20666;-65
2022/09/09 00:49:25;;;;;;;1.90;1.03;;;17.60;99.90;;;17.94;83.64;100132.34;5026772;28;20640;-65
2022/09/09 00:52:33;;;;;;;1.17;0.90;;;17.50;99.90;;;18.00;83.85;100129.84;5033237;28;20620;-65
2022/09/09 00:55:32;;;;;;;1.40;1.30;;;17.60;99.90;;;18.16;82.33;100131.63;5024696;28;20629;-65
2022/09/09 00:57:59;;;;;;;1.47;1.30;;;17.60;99.90;;;18.13;82.83;100134.59;5032967;28;20670;-65
2022/09/09 01:00:35;;;;;;;1.10;1.03;;;17.60;99.90;;;17.93;83.52;100136.78;5031757;28;20672;-65
2022/09/09 01:03:38;;;;;;;0.60;0.60;;;17.50;99.90;;;17.71;84.88;100132.25;5012666;28;20609;-65
2022/09/09 01:06:34;;;;;;;1.23;1.10;;;17.40;99.90;;;17.70;84.86;100138.50;5014193;28;21286;-65
2022/09/09 01:09:19;;;;;;;0.90;0.90;;;17.30;99.90;;;17.56;86.31;100134.75;5029833;28;20629;-65
2022/09/09 01:12:00;;;;;;;0.90;0.90;;;17.20;99.90;;;17.68;85.70;100136.03;5032037;28;20644;-65
2022/09/09 01:14:36;;;;;;;0.90;0.90;;;17.20;99.90;;;17.49;86.99;100123.16;5034094;28;20616;-65
2022/09/09 01:17:30;;;;;;;2.10;1.27;;;17.10;99.90;;;17.43;87.57;100120.38;5032634;28;20670;-65
2022/09/09 01:20:13;;;;;;;1.00;0.90;;;17.10;99.90;;;17.52;86.59;100130.78;5032681;28;20672;-65
2022/09/09 01:23:28;;;;;;;1.57;0.80;;;17.10;99.90;;;17.59;86.34;100133.59;5014074;28;21276;-65
2022/09/09 01:26:23;;;;;;;2.87;1.30;;;17.10;99.90;;;17.65;86.37;100143.47;5026426;28;20620;-65
2022/09/09 01:28:54;;;;;;;1.07;0.97;;;17.10;99.90;;;17.62;86.33;100134.06;5033273;28;20605;-65
2022/09/09 01:31:38;;;;;;;1.33;1.10;;;17.10;99.90;;;17.67;86.04;100138.84;5024818;28;20664;-65
2022/09/09 01:34:28;;;;;;;1.37;1.03;;;17.20;99.90;;;17.62;86.05;100138.50;5010828;28;20625;-65
2022/09/09 01:37:08;;;;;;;1.17;1.03;;;17.20;99.90;;;17.48;87.32;100136.53;5015972;28;20687;-65
2022/09/09 01:39:38;;;;;;;2.80;1.50;;;17.00;99.90;;;17.48;87.20;100133.91;5033373;28;20707;-65
2022/09/09 01:42:09;;;;;;;1.30;0.97;;;17.00;99.90;;;17.37;87.72;100132.41;5031118;28;20655;-65
2022/09/09 01:44:37;;;;;;;2.73;0.80;;;17.00;99.90;;;17.37;87.93;100135.06;5031095;28;21044;-65
2022/09/09 01:47:05;;;;;;;3.53;1.30;;;17.00;99.90;;;17.28;88.35;100135.22;5032430;28;20735;-65
2022/09/09 01:49:32;;;;;;;1.00;1.00;;;16.90;99.90;;;17.32;88.24;100140.00;5032749;28;20648;-65
2022/09/09 01:52:00;;;;;;;1.57;1.20;;;16.90;99.90;;;17.26;88.31;100129.28;5027817;28;20711;-65
2022/09/09 01:54:30;;;;;;;1.73;0.90;;;16.90;99.90;;;17.36;88.33;100132.56;5013038;28;21029;-65
2022/09/09 01:57:08;;;;;;;2.30;1.00;;;16.90;99.90;;;17.39;87.93;100133.06;5024648;28;20668;-65
2022/09/09 01:59:54;;;;;;;0.80;0.80;;;17.00;99.90;;;17.13;89.14;100139.47;5027447;28;20669;-65
2022/09/09 02:02:32;;;;;;;1.03;0.93;;;16.90;99.90;;;17.21;89.12;100135.03;5030424;28;20605;-65
2022/09/09 02:05:49;;;;;;;0.87;0.87;;;16.90;99.90;;;17.24;88.86;100128.63;5015611;28;21164;-65
2022/09/09 02:08:33;;;;;;;1.20;1.10;;;16.90;99.90;;;17.31;88.65;100135.72;5012222;28;20672;-65
2022/09/09 02:11:17;;;;;;;0.80;0.80;;;16.90;99.90;;;17.32;87.69;100128.63;5010397;28;21243;-64
2022/09/09 02:13:47;;;;;;;1.00;1.00;;;16.90;99.90;;;17.27;88.11;100144.94;5013596;28;20637;-65
2022/09/09 02:17:09;;;;;;;0.97;0.90;;;16.90;99.90;;;17.46;86.98;100144.59;5009199;28;20632;-65
2022/09/09 02:19:50;;;;;;;1.67;0.83;;;16.90;99.90;;;17.46;86.94;100144.59;5007869;28;21253;-65
2022/09/09 02:22:22;;;;;;;1.87;1.03;;;17.00;99.90;;;17.40;87.15;100144.47;5023622;28;20666;-65
2022/09/09 02:24:53;;;;;;;0.80;0.80;;;17.00;99.90;;;17.45;86.74;100136.84;5012792;28;20695;-65
2022/09/09 02:27:22;;;;;;;2.13;1.07;;;17.00;99.90;;;17.50;86.87;100140.69;5031849;28;20617;-65
2022/09/09 02:29:51;;;;;;;1.10;1.10;;;17.00;99.90;;;17.64;85.81;100147.09;5014456;28;20716;-65
2022/09/09 02:32:23;;;;;;;6.20;1.10;;;17.10;99.90;;;17.72;85.14;100152.34;5016408;28;20644;-65
2022/09/09 02:34:57;;;;;;;0.73;0.73;;;17.20;99.90;;;17.83;84.33;100144.91;5030262;28;20621;-65
2022/09/09 02:37:33;;;;;;;0.83;0.83;;;17.20;99.90;;;17.76;84.49;100140.47;5027188;28;20612;-65
2022/09/09 02:40:01;;;;;;;0.70;0.70;;;17.20;99.90;;;17.71;84.94;100148.06;5029989;28;20711;-65
2022/09/09 02:42:28;;;;;;;0.90;0.90;;;17.20;99.90;;;17.65;85.45;100148.75;5025313;28;20634;-65
2022/09/09 02:44:55;;;;;;;5.47;0.97;;;17.20;99.90;;;17.69;85.31;100147.41;5022594;28;20625;-65
2022/09/09 02:47:39;;;;;;;1.07;1.00;;;17.20;99.90;;;17.65;85.19;100143.47;5025325;28;21049;-65
2022/09/09 02:50:13;;;;;;;0.73;0.73;;;17.10;99.90;;;17.51;86.16;100142.31;5029543;28;21053;-65
2022/09/09 02:53:01;;;;;;;0.90;0.90;;;17.10;99.90;;;17.57;86.24;100138.19;5031141;28;20666;-65
2022/09/09 02:56:07;;;;;;;2.00;0.90;;;17.10;99.90;;;17.58;85.87;100129.28;5029849;28;20695;-65
2022/09/09 02:58:34;;;;;;;4.50;0.90;;;17.10;99.90;;;17.49;86.58;100120.53;5030111;28;21254;-65
2022/09/09 03:01:02;;;;;;;1.03;0.93;;;17.10;99.90;;;17.52;86.40;100120.25;5030196;28;20640;-65
2022/09/09 03:03:30;;;;;;;1.20;1.10;;;17.00;99.90;;;17.54;85.90;100120.06;5030504;28;20770;-65
2022/09/09 03:05:56;;;;;;;0.90;0.90;;;17.00;99.90;;;17.39;86.89;100125.16;5030989;28;20605;-65
2022/09/09 03:08:23;;;;;;;2.47;1.13;;;17.00;99.90;;;17.28;87.95;100129.94;5030927;28;20605;-65
2022/09/09 03:10:52;;;;;;;0.70;0.70;;;16.90;99.90;;;17.24;88.30;100140.00;5031129;28;20644;-64
2022/09/09 03:13:19;;;;;;;0.93;0.83;;;16.90;99.90;;;17.27;88.28;100130.94;5031720;28;20665;-66
2022/09/09 03:15:48;;;;;;;0.73;0.70;;;16.80;99.90;;;16.93;90.67;100131.88;5029051;28;21446;-64
2022/09/09 03:18:15;;;;;;;1.03;0.93;;;16.70;99.90;;;17.00;90.08;100127.63;5016568;28;21057;-64
2022/09/09 03:20:42;;;;;;;0.80;0.80;;;16.70;99.90;;;16.98;89.98;100129.59;5020813;28;20684;-64
2022/09/09 03:23:09;;;;;;;1.37;0.90;;;16.70;99.90;;;16.99;90.49;100138.34;5030628;28;20629;-64
2022/09/09 03:25:48;;;;;;;1.33;1.20;;;16.60;99.90;;;16.95;90.71;100135.19;5030399;28;20656;-64
2022/09/09 03:28:15;;;;;;;1.07;0.97;;;16.60;99.90;;;16.89;90.79;100133.19;5015607;28;20634;-65
2022/09/09 03:30:42;;;;;;;0.90;0.90;;;16.60;99.90;;;16.92;90.72;100138.16;5011772;28;20638;-64
2022/09/09 03:33:09;;;;;;;1.23;0.70;;;16.60;99.90;;;16.93;90.30;100131.06;5011172;28;20645;-64
2022/09/09 03:35:36;;;;;;;0.70;0.70;;;16.60;99.90;;;16.86;91.07;100140.63;5011536;28;20625;-64
2022/09/09 03:38:03;;;;;;;0.90;0.90;;;16.50;99.90;;;16.77;91.79;100146.84;5025953;28;20645;-64
2022/09/09 03:40:30;;;;;;;0.93;0.93;;;16.50;99.90;;;16.77;91.81;100141.59;5026262;28;21240;-65
2022/09/09 03:42:57;;;;;;;1.17;1.03;;;16.40;99.90;;;16.81;91.84;100143.72;5018013;28;20632;-65
2022/09/09 03:45:24;;;;;;;1.57;1.10;;;16.50;99.90;;;16.87;92.25;100143.09;5025425;28;20638;-64
2022/09/09 03:47:51;;;;;;;0.80;0.80;;;16.50;99.90;;;16.85;91.48;100146.84;5028581;28;20720;-65
2022/09/09 03:50:18;;;;;;;2.20;0.97;;;16.50;99.90;;;16.82;91.39;100134.81;5028075;28;20690;-65
2022/09/09 03:52:45;;;;;;;1.97;0.80;;;16.50;99.90;;;16.67;92.67;100136.47;5010332;28;21006;-63
2022/09/09 03:55:12;;;;;;;2.60;1.00;;;16.40;99.90;;;16.41;94.85;100134.88;5011004;28;21026;-64
2022/09/09 03:57:39;;;;;;;0.93;0.40;;;16.30;99.90;;;16.59;93.47;100139.06;5022732;28;20645;-64
2022/09/09 04:00:08;;;;;;;0.80;0.77;;;16.20;99.90;;;16.54;93.95;100138.72;5029815;28;20668;-64
2022/09/09 04:02:35;;;;;;;1.17;1.07;;;16.20;99.90;;;16.52;93.47;100145.13;5008700;28;20667;-64
2022/09/09 04:05:02;;;;;;;1.07;0.90;;;16.20;99.90;;;16.38;94.64;100135.16;5010651;28;21134;-64
2022/09/09 04:07:29;;;;;;;0.70;0.70;;;16.20;99.90;;;16.24;95.48;100133.97;5009613;28;20648;-64
2022/09/09 04:09:56;;;;;;;2.80;1.00;;;16.10;99.90;;;16.37;94.81;100125.63;5028419;28;20644;-64
2022/09/09 04:12:23;;;;;;;0.80;0.80;;;16.10;99.90;;;16.44;93.36;100124.81;5029115;28;20703;-64
2022/09/09 04:14:50;;;;;;;1.23;0.77;;;16.10;99.90;;;16.34;93.88;100126.78;5028434;28;20617;-64
2022/09/09 04:17:19;;;;;;;8.67;1.10;;;16.10;99.90;;;16.33;94.34;100126.94;5030285;28;20696;-65
2022/09/09 04:19:46;;;;;;;1.00;0.90;;;16.10;99.90;;;16.29;94.08;100131.72;5030053;28;20672;-64
2022/09/09 04:22:14;;;;;;;1.00;0.90;;;16.10;99.90;;;16.26;94.31;100138.09;5025044;28;20641;-65
2022/09/09 04:24:40;;;;;;;1.43;0.80;;;16.00;99.90;;;16.34;93.34;100134.66;5009984;28;20617;-65
2022/09/09 04:27:13;;;;;;;1.70;1.17;;;16.10;99.90;;;16.42;93.03;100137.31;5025753;28;21232;-64
2022/09/09 04:29:40;;;;;;;0.80;0.80;;;16.10;99.90;;;16.53;92.32;100152.88;5025992;28;21082;-65
2022/09/09 04:32:07;;;;;;;1.10;1.10;;;16.10;99.90;;;16.44;92.55;100145.88;5021898;28;20637;-65
2022/09/09 04:34:34;;;;;;;1.60;0.87;;;16.10;99.90;;;16.50;91.97;100150.56;5032732;28;21204;-65
2022/09/09 04:37:01;;;;;;;0.90;0.83;;;16.20;99.90;;;16.65;90.89;100151.59;5032619;28;21232;-65
2022/09/09 04:39:28;;;;;;;0.70;0.67;;;16.20;99.90;;;16.66;90.76;100160.31;5030718;28;20741;-65
2022/09/09 04:41:56;;;;;;;4.97;0.93;;;16.30;99.90;;;16.63;91.22;100158.81;5028846;28;20641;-65
2022/09/09 04:44:23;;;;;;;0.90;0.90;;;16.20;99.90;;;16.80;90.01;100159.72;5032845;28;20617;-64
2022/09/09 04:46:50;;;;;;;1.03;0.67;;;16.30;99.90;;;16.97;88.83;100162.19;5016053;28;20624;-65
2022/09/09 04:49:17;;;;;;;4.30;0.80;;;16.50;99.90;;;16.78;90.39;100162.50;5032408;28;20786;-64
2022/09/09 04:51:45;;;;;;;2.03;0.80;;;16.40;99.90;;;16.83;90.05;100167.28;5032570;28;20632;-64
2022/09/09 04:54:15;;;;;;;1.03;0.90;;;16.40;99.90;;;16.90;90.07;100165.66;5032061;28;20616;-63
2022/09/09 04:56:43;;;;;;;0.80;0.80;;;16.40;99.90;;;17.01;89.77;100168.78;5021961;28;20632;-65
2022/09/09 04:59:09;;;;;;;0.60;0.60;;;16.50;99.90;;;16.98;89.12;100166.50;5032920;28;20621;-65
2022/09/09 05:01:36;;;;;;;1.10;0.80;;;16.50;99.90;;;17.00;89.34;100168.97;5029862;28;20640;-67
2022/09/09 05:04:03;;;;;;;0.70;0.70;;;16.50;99.90;;;16.66;91.38;100171.69;5032538;28;21046;-66
2022/09/09 05:06:31;;;;;;;0.60;0.60;;;16.40;99.90;;;16.84;90.45;100168.94;5031143;28;20632;-66
2022/09/09 05:09:01;;;;;;;1.17;0.70;;;16.40;99.90;;;16.76;90.67;100175.00;5031683;28;20655;-67
2022/09/09 05:11:35;;;;;;;1.17;0.70;;;16.40;99.90;;;16.55;92.38;100173.78;5021308;28;20638;-65
2022/09/09 05:14:03;;;;;;;0.70;0.70;;;16.30;99.90;;;16.59;91.82;100175.13;5013394;28;20613;-66
2022/09/09 05:16:31;;;;;;;1.73;0.70;;;16.30;99.90;;;16.46;92.75;100179.97;5012793;28;20617;-65
2022/09/09 05:18:58;;;;;;;1.43;0.80;;;16.20;99.90;;;16.52;92.70;100176.75;5017833;28;20640;-66
2022/09/09 05:21:26;;;;;;;0.70;0.70;;;16.20;99.90;;;16.64;91.84;100173.66;5028264;28;21053;-66
2022/09/09 05:23:53;;;;;;;0.70;0.70;;;16.30;99.90;;;16.82;91.24;100187.53;5030482;28;20628;-66
2022/09/09 05:26:22;;;;;;;4.53;1.00;;;16.40;99.90;;;17.08;89.39;100188.25;5032311;28;20616;-66
2022/09/09 05:28:49;;;;;;;1.13;0.80;;;16.50;99.90;;;17.12;88.81;100193.22;5031857;28;20609;-67
2022/09/09 05:31:18;;;;;;;0.80;0.80;;;16.60;99.90;;;17.13;88.97;100203.59;5011624;28;20664;-66
2022/09/09 05:33:47;;;;;;;9.63;1.07;;;16.60;99.90;;;17.24;87.87;100198.00;5023985;28;20703;-66
2022/09/09 05:36:18;;;;;;;1.27;0.80;;;16.70;99.90;;;17.14;88.38;100204.41;5012066;28;20696;-66
2022/09/09 05:38:46;;;;;;;0.73;0.73;;;16.70;99.90;;;17.19;88.25;100207.38;5011855;28;20620;-66
2022/09/09 05:41:17;;;;;;;1.17;0.70;;;16.70;99.90;;;17.26;88.02;100211.00;5010774;28;20684;-66
2022/09/09 05:43:45;;;;;;;1.20;0.80;;;16.80;99.90;;;17.20;88.20;100209.88;5012649;28;20987;-66
2022/09/09 05:46:15;;;;;;;2.50;0.80;;;16.70;99.90;;;17.35;87.67;100215.31;5010043;28;20633;-66
2022/09/09 05:48:47;;;;;;;1.60;0.90;;;16.80;99.90;;;17.29;87.60;100210.69;5011436;28;20614;-66
2022/09/09 05:51:18;;;;;;;1.00;0.90;;;16.80;99.90;;;17.30;88.09;100209.69;5014246;28;21259;-65
2022/09/09 05:53:45;;;;;;;1.10;0.67;;;16.80;99.90;;;17.15;88.32;100213.94;5026034;28;20644;-66
2022/09/09 05:56:25;;;;;;;1.10;0.83;;;16.70;99.90;;;17.40;87.53;100220.94;5018258;28;21039;-66
2022/09/09 05:58:53;;;;;;;1.10;1.00;;;16.80;99.90;;;17.32;87.40;100223.53;5011040;28;20606;-66
2022/09/09 06:01:26;;;;;;;1.23;0.80;;;16.80;99.90;;;17.30;87.49;100233.44;5012008;28;20669;-66
2022/09/09 06:03:53;;;;;;;0.70;0.63;;;16.90;99.90;;;17.32;87.03;100223.53;4996105;28;20671;-66
2022/09/09 06:06:32;;;;;;;2.20;0.50;;;16.80;99.90;;;17.38;86.91;100230.78;5012588;28;21164;-67
2022/09/09 06:09:00;;;;;;;1.33;0.63;;;16.90;99.90;;;17.36;87.28;100236.25;5010184;28;20671;-66
2022/09/09 06:11:33;;;;;;;1.87;0.77;;;16.90;99.90;;;17.45;85.91;100237.06;5016477;28;20641;-66
2022/09/09 06:14:00;;;;;;;0.60;0.57;;;17.00;99.90;;;17.42;86.76;100237.41;5025072;28;20620;-66
2022/09/09 06:16:29;;;;;;;0.70;0.70;;;17.00;99.90;;;17.58;85.82;100233.00;5029154;28;20637;-66
2022/09/09 06:18:57;;;;;;;0.70;0.70;;;17.10;99.90;;;18.93;80.75;100224.09;5029604;28;21064;-67
2022/09/09 06:21:36;;;;;;;0.87;0.77;;;17.70;99.90;;;20.60;71.48;100231.78;5030121;28;20692;-67
2022/09/09 06:24:05;;;;;;;3.40;0.90;;;18.70;99.90;;;22.53;63.97;100231.38;5032147;28;20651;-67
2022/09/09 06:26:40;;;;;;;0.70;0.70;;;20.00;99.90;;;24.33;57.56;100234.00;5012975;28;20863;-67
2022/09/09 06:29:08;;;;;;;1.47;0.70;;;21.30;99.90;;;25.92;52.59;100228.44;5002090;28;20716;-67
2022/09/09 06:31:36;;;;;;;0.70;0.70;;;22.70;99.90;;;27.45;47.64;100241.53;5022371;28;20688;-68
2022/09/09 06:34:07;;;;;;;7.30;1.27;;;24.00;99.90;;;27.29;48.20;100240.28;5018301;28;20641;-66
2022/09/09 06:36:37;;;;;;;3.83;0.67;;;24.50;99.90;;;27.03;48.54;100237.97;5024259;28;20799;-66
2022/09/09 06:39:06;;;;;;;2.50;1.00;;;24.60;99.90;;;26.90;48.52;100238.13;5029427;28;21196;-66
2022/09/09 06:41:39;;;;;;;0.70;0.70;;;24.60;99.90;;;25.16;52.22;100241.09;5031559;28;20655;-67
2022/09/09 06:44:06;;;;;;;0.60;0.60;;;24.00;99.90;;;25.71;51.77;100237.66;5031049;28;20623;-65
2022/09/09 06:46:35;;;;;;;0.73;0.73;;;24.00;99.90;;;26.41;49.99;100239.09;5030797;28;20974;-67
2022/09/09 06:49:03;;;;;;;0.77;0.77;;;24.20;99.90;;;25.73;50.40;100234.75;5027812;28;20625;-67
2022/09/09 06:51:34;;;;;;;1.80;0.83;;;24.10;99.90;;;24.49;54.23;100233.56;5025834;28;21134;-66
2022/09/09 06:54:02;;;;;;;0.70;0.70;;;23.20;99.90;;;23.95;55.61;100227.66;5029616;28;20625;-66
2022/09/09 06:56:32;;;;;;;2.13;0.83;;;22.80;99.90;;;22.85;59.79;100221.94;5029770;28;21192;-66
2022/09/09 06:59:03;;;;;;;0.90;0.90;;;21.90;99.90;;;22.02;62.99;100217.56;5011732;28;20638;-66
2022/09/09 07:01:33;;;;;;;1.67;1.13;;;21.30;99.90;;;21.26;65.77;100220.97;5009758;28;20711;-67
2022/09/09 07:04:03;;;;;;;0.70;0.70;;;20.70;99.90;;;22.14;64.12;100224.00;5009472;28;20632;-67
2022/09/09 07:06:32;;;;;;;0.97;0.97;;;20.90;99.90;;;23.17;59.67;100216.72;5029366;28;20613;-67
2022/09/09 07:09:04;;;;;;;0.70;0.70;;;21.60;99.90;;;22.18;62.58;100217.28;5014798;28;20637;-67
2022/09/09 07:11:41;;;;;;;0.63;0.63;;;21.40;99.90;;;21.38;65.35;100223.97;5013485;28;20637;-67
2022/09/09 07:14:09;;;;;;;3.87;1.07;;;21.00;99.90;;;20.82;68.12;100220.25;5042409;28;20684;-67
2022/09/09 07:16:37;;;;;;;2.77;0.87;;;20.50;99.90;;;21.06;67.09;100221.78;5029164;28;21207;-67
2022/09/09 07:19:04;;;;;;;1.77;1.00;;;20.40;99.90;;;20.55;69.01;100215.63;5030547;28;21080;-67
2022/09/09 07:21:32;;;;;;;0.77;0.70;;;20.00;99.90;;;20.18;70.01;100224.47;5030104;28;20656;-67
2022/09/09 07:24:00;;;;;;;1.80;0.70;;;19.70;99.90;;;19.87;72.13;100229.06;5018353;28;21213;-67
2022/09/09 07:26:30;;;;;;;1.13;0.70;;;19.50;99.90;;;19.80;72.46;100225.50;5013565;28;20625;-66
2022/09/09 07:28:57;;;;;;;1.73;0.83;;;19.40;99.90;;;19.66;72.86;100221.81;5021984;28;21023;-67
2022/09/09 07:31:31;;;;;;;2.30;0.90;;;19.30;99.90;;;19.95;72.03;100224.50;5029545;28;20633;-67
2022/09/09 07:34:00;;;;;;;0.60;0.60;;;19.20;99.90;;;20.28;70.27;100229.50;5022591;28;20629;-66
2022/09/09 07:36:30;;;;;;;2.33;1.10;;;19.50;99.90;;;20.10;70.63;100232.50;5016293;28;20662;-66
2022/09/09 07:39:04;;;;;;;2.50;0.80;;;19.50;99.90;;;20.38;69.80;100230.09;5010095;28;20622;-66
2022/09/09 07:41:40;;;;;;;0.53;0.53;;;19.60;99.90;;;20.25;70.61;100235.19;5009769;28;20665;-68
2022/09/09 07:44:11;;;;;;;1.83;0.80;;;19.60;99.90;;;20.34;69.85;100228.78;5030164;28;21029;-67
2022/09/09 07:46:41;;;;;;;0.97;0.83;;;19.70;99.90;;;21.20;65.96;100228.88;5024836;28;21267;-67
2022/09/09 07:49:09;;;;;;;1.73;0.90;;;20.20;99.90;;;21.54;64.99;100240.44;5009673;28;20711;-65
2022/09/09 07:51:40;;;;;;;3.80;0.80;;;20.50;99.90;;;21.46;65.16;100231.78;5008446;28;20710;-66
2022/09/09 07:54:11;;;;;;;1.30;1.20;;;20.40;99.90;;;21.69;63.96;100226.25;5027989;28;20672;-67
2022/09/09 07:56:43;;;;;;;1.30;0.97;;;20.50;99.90;;;21.51;64.91;100232.84;5028735;28;20617;-67
2022/09/09 07:59:11;;;;;;;7.70;0.90;;;20.30;99.90;;;21.69;64.40;100236.88;4994892;28;20985;-67
2022/09/09 08:01:48;;;;;;;3.60;0.87;;;20.40;99.90;;;21.27;65.63;100243.84;5010327;28;21015;-68
2022/09/09 08:04:18;;;;;;;2.20;1.03;;;20.20;99.90;;;21.20;66.57;100245.63;5009101;28;20671;-66
2022/09/09 08:06:49;;;;;;;2.93;1.20;;;20.10;99.90;;;20.60;68.26;100256.47;5017468;28;20640;-66
2022/09/09 08:09:17;;;;;;;0.87;0.80;;;19.90;99.90;;;20.47;69.66;100264.25;5025867;28;20625;-67
2022/09/09 08:11:44;;;;;;;2.00;0.80;;;19.70;99.90;;;20.31;71.71;100258.31;5033661;28;20625;-67
2022/09/09 08:14:12;;;;;;;1.13;1.00;;;19.50;99.90;;;19.91;74.23;100259.50;5031522;28;20710;-67
2022/09/09 08:16:43;;;;;;;3.47;1.00;;;19.20;99.90;;;19.68;76.89;100253.38;5026240;28;21072;-67
2022/09/09 08:19:11;;;;;;;0.80;0.80;;;18.90;99.90;;;19.53;77.38;100255.97;5032741;28;20608;-68
2022/09/09 08:21:40;;;;;;;0.80;0.60;;;18.80;99.90;;;19.67;77.08;100247.28;5014442;28;21249;-67
2022/09/09 08:24:10;;;;;;;1.03;0.60;;;18.80;99.90;;;19.80;77.20;100258.09;5024714;28;20667;-67
2022/09/09 08:26:41;;;;;;;2.43;0.80;;;18.80;99.90;;;19.79;77.26;100259.09;5030895;28;20625;-68
2022/09/09 08:29:10;;;;;;;2.73;0.97;;;18.90;99.90;;;19.93;76.10;100260.94;5024539;28;20641;-67
2022/09/09 08:31:40;;;;;;;3.77;1.17;;;18.90;99.90;;;20.30;74.96;100261.94;5031103;28;20655;-67
2022/09/09 08:34:09;;;;;;;1.77;0.83;;;19.10;99.90;;;20.31;74.29;100261.78;5023709;28;20636;-68
2022/09/09 08:36:42;;;;;;;0.80;0.70;;;19.20;99.90;;;20.85;71.78;100259.63;5031615;28;20617;-67
2022/09/09 08:39:15;;;;;;;1.33;0.93;;;19.60;99.90;;;21.47;69.03;100262.63;5030965;28;20995;-69
2022/09/09 08:42:25;;;;;;;1.70;1.07;;;20.00;99.90;;;22.16;65.92;100268.97;5024241;28;20650;-69
2022/09/09 08:45:19;;;;;;;1.10;1.00;;;20.50;99.90;;;24.76;57.49;100279.66;5034197;28;20617;-66
2022/09/09 08:48:01;;;;;;;0.93;0.67;;;21.80;99.90;;;27.47;49.13;100274.28;5015225;28;20996;-68
2022/09/09 08:50:35;;;;;;;3.43;0.80;;;23.90;99.90;;;30.83;41.88;100270.41;5011898;28;20632;-67
2022/09/09 08:53:11;;;;;;;3.70;1.33;;;25.90;99.90;;;33.28;37.53;100295.03;5022044;28;20633;-68
2022/09/09 08:55:41;;;;;;;1.00;0.80;;;27.60;98.80;;;33.45;35.41;100278.56;5029551;28;20660;-67
2022/09/09 08:58:31;;;;;;;1.17;1.03;;;28.80;94.60;;;30.98;39.80;100271.44;5025891;28;20637;-68
2022/09/09 09:01:10;;;;;;;1.03;1.03;;;28.20;93.80;;;29.89;42.00;100264.22;5017546;28;20696;-67
2022/09/09 09:04:27;;;;;;;3.30;0.90;;;27.40;94.40;;;31.49;39.12;100259.31;5032184;28;20678;-67
2022/09/09 09:07:24;;;;;;;1.00;0.60;;;27.60;94.90;;;36.26;30.79;100279.34;5010628;28;20633;-68
2022/09/09 09:10:24;;;;;;;0.70;0.70;;;30.00;91.10;;;33.37;34.97;100263.66;5012489;28;20728;-68
2022/09/09 09:13:15;;;;;;;1.63;1.13;;;29.60;89.40;;;30.04;40.24;100251.00;5014737;28;20629;-66
2022/09/09 09:15:48;;;;;;;1.00;0.90;;;28.20;90.00;;;29.42;41.97;100257.44;5030494;28;20626;-70
2022/09/09 09:18:17;;;;;;;1.83;0.87;;;27.30;91.70;;;29.66;40.51;100256.28;5021407;28;20634;-67
2022/09/09 09:21:10;;;;;;;2.73;1.07;;;27.30;91.30;;;28.16;44.03;100255.63;5016155;28;21241;-67
2022/09/09 09:23:51;;;;;;;2.00;0.90;;;26.40;92.70;;;29.87;40.72;100274.41;5027744;28;21200;-67
2022/09/09 09:26:19;;;;;;;0.70;0.70;;;26.80;93.00;;;30.38;39.71;100255.28;5022458;28;20682;-71
2022/09/09 09:28:46;;;;;;;1.10;0.93;;;27.40;91.90;;;30.64;40.32;100267.22;5029577;28;20667;-68
2022/09/09 09:31:13;;;;;;;2.03;0.80;;;27.40;92.20;;;30.54;39.64;100259.81;5029418;28;20664;-65
2022/09/09 09:33:40;;;;;;;1.80;1.17;;;27.80;91.10;;;32.17;36.84;100263.13;5020959;28;20644;-68
2022/09/09 09:36:08;;;;;;;1.53;0.90;;;28.10;90.80;;;31.05;38.11;100257.78;5024677;28;21164;-72
2022/09/09 09:38:37;;;;;;;1.03;1.00;;;27.90;90.40;;;28.91;41.96;100251.09;5020823;28;20613;-66
2022/09/09 09:41:42;;;;;;;0.80;0.80;;;26.80;91.20;;;27.96;44.90;100238.22;5024384;28;20646;-68
2022/09/09 09:44:29;;;;;;;0.83;0.63;;;26.10;92.70;;;29.46;41.46;100237.91;5021945;28;21175;-66
2022/09/09 09:47:35;;;;;;;0.60;0.60;;;26.40;93.00;;;30.80;38.46;100249.34;5022015;28;21200;-66
2022/09/09 09:50:04;;;;;;;0.93;0.93;;;27.80;90.60;;;29.16;41.62;100248.09;4960596;28;20671;-67
2022/09/09 09:52:34;;;;;;;3.87;0.93;;;27.30;90.50;;;27.40;45.65;100258.28;4967804;28;20698;-68
2022/09/09 09:55:06;;;;;;;1.53;0.90;;;26.10;92.30;;;24.89;52.15;100258.28;4983149;28;20625;-67
2022/09/09 09:57:34;;;;;;;2.53;1.00;;;24.30;94.90;;;24.21;54.17;100255.16;5011929;28;20630;-66
2022/09/09 10:00:19;;;;;;;3.90;1.00;;;23.40;97.30;;;23.85;56.68;100260.06;5012443;28;20691;-65
2022/09/09 10:02:48;;;;;;;2.00;1.00;;;22.70;99.60;;;23.10;58.71;100257.66;5020257;28;20672;-66
2022/09/09 10:05:21;;;;;;;1.07;0.70;;;22.20;99.90;;;22.69;60.48;100251.53;5019118;28;21082;-66
2022/09/09 10:08:11;;;;;;;0.40;0.40;;;21.80;99.90;;;22.43;62.18;100252.19;5014849;28;20627;-66
2022/09/09 10:11:17;;;;;;;0.73;0.73;;;21.50;99.90;;;22.89;60.25;100247.13;5031172;28;20637;-68
2022/09/09 10:14:11;;;;;;;1.57;0.80;;;21.70;99.90;;;23.03;59.65;100254.97;5020799;28;20653;-65
2022/09/09 10:17:06;;;;;;;2.70;0.90;;;21.90;99.90;;;23.59;58.27;100268.03;5024591;28;20682;-68
2022/09/09 10:19:38;;;;;;;2.10;0.90;;;22.10;99.90;;;24.00;55.87;100255.31;5016195;28;20731;-64
2022/09/09 10:22:14;;;;;;;0.93;0.80;;;22.30;99.90;;;25.16;52.84;100238.41;5030431;28;20688;-63
2022/09/09 10:25:06;;;;;;;2.10;0.83;;;23.00;99.90;;;27.43;46.73;100259.69;5029010;28;20998;-63
2022/09/09 10:28:00;;;;;;;5.60;1.33;;;24.40;99.90;;;29.84;40.49;100245.28;5031448;28;20625;-63
2022/09/09 10:31:05;;;;;;;0.60;0.60;;;26.00;97.40;;;29.61;40.84;100234.66;5015389;28;20688;-63
2022/09/09 10:34:18;;;;;;;0.77;0.60;;;27.00;94.90;;;27.94;44.86;100237.66;5027611;28;20630;-65
2022/09/09 10:36:49;;;;;;;1.13;0.93;;;26.30;95.30;;;26.68;47.69;100231.59;5026754;28;20617;-64
2022/09/09 10:39:40;;;;;;;11.00;4.93;;;25.70;96.10;;;26.19;49.51;100223.69;5027079;28;20626;-64
2022/09/09 10:42:14;;;;;;;0.60;0.60;;;25.20;96.90;;;24.91;52.41;100235.69;5026256;28;20752;-67
2022/09/09 10:44:55;;;;;;;1.33;0.60;;;24.30;97.90;;;24.05;55.30;100228.91;5026178;28;20656;-66
2022/09/09 10:47:53;;;;;;;0.60;0.60;;;23.40;99.90;;;24.10;55.78;100212.31;5011229;28;20622;-68